createdAt,value
2017-08-07T00:00:14.978Z,0
2017-08-07T00:01:25.510Z,0
2017-08-07T00:02:36.039Z,0
2017-08-07T00:03:46.506Z,0
2017-08-07T00:04:57.298Z,0
2017-08-07T00:06:07.742Z,0
2017-08-07T00:07:18.264Z,0
2017-08-07T00:08:28.271Z,0
2017-08-07T00:09:38.715Z,0
2017-08-07T00:10:49.513Z,0
2017-08-07T00:11:59.976Z,0
2017-08-07T00:13:10.163Z,0
2017-08-07T00:14:20.634Z,0
2017-08-07T00:15:31.120Z,0
2017-08-07T00:16:41.811Z,0
2017-08-07T00:17:52.278Z,0
2017-08-07T00:19:02.438Z,0
2017-08-07T00:20:12.583Z,0
2017-08-07T00:21:23.154Z,0
2017-08-07T00:22:33.868Z,0
2017-08-07T00:23:44.393Z,0
2017-08-07T00:24:54.431Z,0
2017-08-07T00:26:04.984Z,0
2017-08-07T00:27:15.408Z,0
2017-08-07T00:28:26.221Z,0
2017-08-07T00:29:36.670Z,0
2017-08-07T00:30:47.111Z,0
2017-08-07T00:31:57.611Z,0
2017-08-07T00:33:08.074Z,0
2017-08-07T00:34:18.849Z,0
2017-08-07T00:35:29.382Z,0
2017-08-07T00:36:39.939Z,0
2017-08-07T00:37:50.491Z,0
2017-08-07T00:39:01.143Z,0
2017-08-07T00:40:11.880Z,0
2017-08-07T00:41:22.352Z,0
2017-08-07T00:42:32.364Z,0
2017-08-07T00:43:42.822Z,0
2017-08-07T00:44:53.413Z,0
2017-08-07T00:46:04.169Z,0
2017-08-07T00:47:14.652Z,0
2017-08-07T00:48:25.097Z,0
2017-08-07T00:49:35.101Z,0
2017-08-07T00:50:45.663Z,0
2017-08-07T00:51:56.464Z,0
2017-08-07T00:53:06.978Z,0
2017-08-07T00:54:17.559Z,0
2017-08-07T00:55:27.735Z,0
2017-08-07T00:56:38.197Z,0
2017-08-07T00:57:48.517Z,0
2017-08-07T00:58:58.992Z,0
2017-08-07T01:00:09.559Z,0
2017-08-07T01:01:20.008Z,0
2017-08-07T01:02:30.154Z,0
2017-08-07T01:03:40.887Z,0
2017-08-07T01:04:51.448Z,0
2017-08-07T01:06:01.910Z,0
2017-08-07T01:07:12.362Z,0
2017-08-07T01:08:22.823Z,0
2017-08-07T01:09:33.529Z,0
2017-08-07T01:10:43.984Z,0
2017-08-07T01:11:54.663Z,0
2017-08-07T01:13:05.122Z,0
2017-08-07T01:14:15.565Z,0
2017-08-07T01:15:26.358Z,0
2017-08-07T01:16:36.823Z,0
2017-08-07T01:17:47.599Z,0
2017-08-07T01:18:58.060Z,0
2017-08-07T01:20:08.161Z,0
2017-08-07T01:21:18.910Z,0
2017-08-07T01:22:29.049Z,0
2017-08-07T01:23:39.230Z,0
2017-08-07T01:24:49.699Z,0
2017-08-07T01:26:00.157Z,0
2017-08-07T01:27:10.890Z,0
2017-08-07T01:28:20.971Z,0
2017-08-07T01:29:31.020Z,0
2017-08-07T01:30:41.457Z,0
2017-08-07T01:31:51.378Z,0
2017-08-07T01:33:02.122Z,0
2017-08-07T01:34:12.278Z,0
2017-08-07T01:35:22.760Z,0
2017-08-07T01:36:33.227Z,0
2017-08-07T01:37:43.690Z,0
2017-08-07T01:38:54.415Z,0
2017-08-07T01:40:04.982Z,0
2017-08-07T01:41:15.128Z,0
2017-08-07T01:42:25.328Z,0
2017-08-07T01:43:35.774Z,0
2017-08-07T01:44:46.273Z,0
2017-08-07T01:45:56.510Z,0
2017-08-07T01:47:06.964Z,0
2017-08-07T01:48:17.658Z,0
2017-08-07T01:49:28.168Z,0
2017-08-07T01:50:38.929Z,0
2017-08-07T01:51:49.308Z,0
2017-08-07T01:52:59.438Z,0
2017-08-07T01:54:09.995Z,0
2017-08-07T01:55:20.127Z,0
2017-08-07T01:56:30.861Z,0
2017-08-07T01:57:40.884Z,0
2017-08-07T01:58:51.332Z,0
2017-08-07T02:00:01.792Z,0
2017-08-07T02:01:12.254Z,0
2017-08-07T02:02:22.997Z,0
2017-08-07T02:03:33.132Z,0
2017-08-07T02:04:43.583Z,0
2017-08-07T02:05:54.325Z,0
2017-08-07T02:07:04.807Z,0
2017-08-07T02:08:15.513Z,0
2017-08-07T02:09:26.018Z,0
2017-08-07T02:10:36.223Z,0
2017-08-07T02:11:46.449Z,0
2017-08-07T02:12:56.622Z,0
2017-08-07T02:14:07.349Z,0
2017-08-07T02:15:17.813Z,0
2017-08-07T02:16:28.028Z,0
2017-08-07T02:17:38.478Z,0
2017-08-07T02:18:49.098Z,0
2017-08-07T02:19:59.851Z,0
2017-08-07T02:21:10.428Z,0
2017-08-07T02:22:20.457Z,0
2017-08-07T02:23:31.051Z,0
2017-08-07T02:24:41.508Z,0
2017-08-07T02:25:52.519Z,0
2017-08-07T02:27:03.175Z,0
2017-08-07T02:28:13.755Z,0
2017-08-07T02:29:24.200Z,0
2017-08-07T02:30:34.688Z,0
2017-08-07T02:31:45.082Z,0
2017-08-07T02:32:55.546Z,0
2017-08-07T02:34:06.041Z,0
2017-08-07T02:35:16.610Z,0
2017-08-07T02:36:27.054Z,0
2017-08-07T02:37:37.758Z,0
2017-08-07T02:38:47.922Z,0
2017-08-07T02:39:58.435Z,0
2017-08-07T02:41:08.923Z,0
2017-08-07T02:42:19.361Z,0
2017-08-07T02:43:29.748Z,0
2017-08-07T02:44:40.204Z,0
2017-08-07T02:45:50.690Z,0
2017-08-07T02:47:01.292Z,0
2017-08-07T02:48:11.447Z,0
2017-08-07T02:49:22.224Z,0
2017-08-07T02:50:32.698Z,0
2017-08-07T02:51:43.144Z,0
2017-08-07T02:52:53.285Z,0
2017-08-07T02:54:03.922Z,0
2017-08-07T02:55:14.767Z,0
2017-08-07T02:56:25.201Z,0
2017-08-07T02:57:35.708Z,0
2017-08-07T02:58:46.172Z,0
2017-08-07T02:59:56.658Z,0
2017-08-07T03:01:07.509Z,0
2017-08-07T03:02:18.206Z,0
2017-08-07T03:03:28.698Z,0
2017-08-07T03:04:39.145Z,0
2017-08-07T03:05:49.633Z,0
2017-08-07T03:07:00.391Z,4
2017-08-07T03:08:10.847Z,4
2017-08-07T03:09:21.299Z,0
2017-08-07T03:10:31.755Z,0
2017-08-07T03:11:42.216Z,4
2017-08-07T03:12:52.990Z,0
2017-08-07T03:14:03.490Z,4
2017-08-07T03:15:13.935Z,4
2017-08-07T03:16:24.141Z,8
2017-08-07T03:17:34.833Z,8
2017-08-07T03:18:45.706Z,8
2017-08-07T03:19:56.271Z,12
2017-08-07T03:21:06.399Z,12
2017-08-07T03:22:17.087Z,16
2017-08-07T03:23:27.626Z,20
2017-08-07T03:24:38.379Z,20
2017-08-07T03:25:48.822Z,24
2017-08-07T03:26:59.266Z,32
2017-08-07T03:28:09.726Z,36
2017-08-07T03:29:20.190Z,40
2017-08-07T03:30:30.956Z,48
2017-08-07T03:31:41.412Z,52
2017-08-07T03:32:51.883Z,64
2017-08-07T03:34:02.400Z,72
2017-08-07T03:35:12.855Z,84
2017-08-07T03:36:23.142Z,92
2017-08-07T03:37:33.281Z,108
2017-08-07T03:38:43.439Z,120
2017-08-07T03:39:53.935Z,136
2017-08-07T03:41:04.502Z,152
2017-08-07T03:42:14.938Z,164
2017-08-07T03:43:25.415Z,184
2017-08-07T03:44:35.852Z,204
2017-08-07T03:45:46.351Z,224
2017-08-07T03:46:56.811Z,244
2017-08-07T03:48:07.520Z,268
2017-08-07T03:49:18.028Z,296
2017-08-07T03:50:28.491Z,320
2017-08-07T03:51:38.522Z,348
2017-08-07T03:52:48.802Z,376
2017-08-07T03:53:59.493Z,408
2017-08-07T03:55:10.080Z,432
2017-08-07T03:56:20.528Z,468
2017-08-07T03:57:30.696Z,496
2017-08-07T03:58:40.980Z,528
2017-08-07T03:59:51.687Z,560
2017-08-07T04:01:02.235Z,596
2017-08-07T04:02:12.674Z,628
2017-08-07T04:03:23.167Z,664
2017-08-07T04:04:33.624Z,696
2017-08-07T04:05:44.344Z,732
2017-08-07T04:06:54.813Z,768
2017-08-07T04:08:05.308Z,808
2017-08-07T04:09:15.767Z,844
2017-08-07T04:10:25.932Z,880
2017-08-07T04:11:36.770Z,916
2017-08-07T04:12:47.213Z,952
2017-08-07T04:13:57.849Z,992
2017-08-07T04:15:08.328Z,1024
2017-08-07T04:16:18.765Z,1064
2017-08-07T04:17:29.459Z,1100
2017-08-07T04:18:39.621Z,1136
2017-08-07T04:19:50.371Z,1176
2017-08-07T04:21:00.938Z,1212
2017-08-07T04:22:11.392Z,1248
2017-08-07T04:23:22.124Z,1284
2017-08-07T04:24:32.591Z,1320
2017-08-07T04:25:43.072Z,1356
2017-08-07T04:26:53.410Z,1396
2017-08-07T04:28:03.603Z,1436
2017-08-07T04:29:14.363Z,1476
2017-08-07T04:30:24.808Z,1512
2017-08-07T04:31:35.376Z,1548
2017-08-07T04:32:45.826Z,1580
2017-08-07T04:33:56.283Z,1612
2017-08-07T04:35:07.016Z,1644
2017-08-07T04:36:17.465Z,1684
2017-08-07T04:37:27.952Z,1720
2017-08-07T04:38:38.412Z,1756
2017-08-07T04:39:48.924Z,1796
2017-08-07T04:40:59.656Z,1832
2017-08-07T04:42:09.536Z,1880
2017-08-07T04:43:20.214Z,2000
2017-08-07T04:44:30.275Z,2160
2017-08-07T04:45:40.704Z,2216
2017-08-07T04:46:51.424Z,2112
2017-08-07T04:48:02.083Z,2084
2017-08-07T04:49:12.111Z,2108
2017-08-07T04:50:22.584Z,2140
2017-08-07T04:51:33.267Z,2180
2017-08-07T04:52:43.752Z,2216
2017-08-07T04:53:54.205Z,2256
2017-08-07T04:55:04.703Z,2292
2017-08-07T04:56:15.156Z,2332
2017-08-07T04:57:25.627Z,2368
2017-08-07T04:58:36.366Z,2404
2017-08-07T04:59:46.526Z,2440
2017-08-07T05:00:56.975Z,2472
2017-08-07T05:02:07.443Z,2508
2017-08-07T05:03:17.910Z,2548
2017-08-07T05:04:28.660Z,2584
2017-08-07T05:05:39.113Z,2616
2017-08-07T05:06:49.555Z,2648
2017-08-07T05:08:00.013Z,2688
2017-08-07T05:09:10.274Z,2724
2017-08-07T05:10:21.008Z,2756
2017-08-07T05:11:31.458Z,2792
2017-08-07T05:12:41.943Z,2828
2017-08-07T05:13:52.398Z,2860
2017-08-07T05:15:02.542Z,2896
2017-08-07T05:16:12.973Z,2924
2017-08-07T05:17:23.485Z,2956
2017-08-07T05:18:34.026Z,2992
2017-08-07T05:19:44.545Z,3024
2017-08-07T05:20:55.039Z,3056
2017-08-07T05:22:05.990Z,3092
2017-08-07T05:23:16.516Z,3136
2017-08-07T05:24:27.094Z,3192
2017-08-07T05:25:37.554Z,3320
2017-08-07T05:26:48.152Z,3712
2017-08-07T05:27:58.850Z,3772
2017-08-07T05:29:09.346Z,3396
2017-08-07T05:30:20.485Z,3384
2017-08-07T05:31:30.926Z,3432
2017-08-07T05:32:41.624Z,3448
2017-08-07T05:33:52.338Z,3412
2017-08-07T05:35:02.809Z,3432
2017-08-07T05:36:13.276Z,3460
2017-08-07T05:37:23.743Z,3488
2017-08-07T05:38:33.780Z,3512
2017-08-07T05:39:44.046Z,3544
2017-08-07T05:40:54.553Z,3572
2017-08-07T05:42:04.636Z,3592
2017-08-07T05:43:15.111Z,3620
2017-08-07T05:44:25.580Z,3648
2017-08-07T05:45:36.294Z,3672
2017-08-07T05:46:46.772Z,3700
2017-08-07T05:47:57.354Z,3720
2017-08-07T05:49:07.809Z,3748
2017-08-07T05:50:18.260Z,3768
2017-08-07T05:51:29.066Z,3792
2017-08-07T05:52:39.533Z,3816
2017-08-07T05:53:50.350Z,3840
2017-08-07T05:55:00.798Z,3864
2017-08-07T05:56:11.251Z,3888
2017-08-07T05:57:22.090Z,3904
2017-08-07T05:58:32.539Z,3924
2017-08-07T05:59:43.047Z,3944
2017-08-07T06:00:52.915Z,3968
2017-08-07T06:02:03.461Z,3988
2017-08-07T06:03:14.167Z,4008
2017-08-07T06:04:24.616Z,4028
2017-08-07T06:05:35.091Z,4048
2017-08-07T06:06:45.560Z,4068
2017-08-07T06:07:56.250Z,4084
2017-08-07T06:09:06.967Z,4104
2017-08-07T06:10:17.115Z,4120
2017-08-07T06:11:27.656Z,4136
2017-08-07T06:12:38.190Z,4156
2017-08-07T06:13:48.854Z,4172
2017-08-07T06:14:59.775Z,4184
2017-08-07T06:16:10.224Z,4208
2017-08-07T06:17:20.680Z,4228
2017-08-07T06:18:31.139Z,4248
2017-08-07T06:19:41.597Z,4264
2017-08-07T06:20:52.389Z,4272
2017-08-07T06:22:02.827Z,4288
2017-08-07T06:23:13.299Z,4312
2017-08-07T06:24:23.426Z,4324
2017-08-07T06:25:33.178Z,4336
2017-08-07T06:26:43.897Z,4336
2017-08-07T06:27:54.363Z,4344
2017-08-07T06:29:04.845Z,4360
2017-08-07T06:30:15.315Z,4372
2017-08-07T06:31:25.782Z,4396
2017-08-07T06:32:36.539Z,4420
2017-08-07T06:33:47.005Z,4436
2017-08-07T06:34:57.471Z,4456
2017-08-07T06:36:07.969Z,4496
2017-08-07T06:37:50.681Z,4540
2017-08-07T06:39:00.832Z,4572
2017-08-07T06:40:11.294Z,4592
2017-08-07T06:41:21.781Z,4608
2017-08-07T06:42:31.915Z,4624
2017-08-07T06:43:42.666Z,4640
2017-08-07T06:44:53.130Z,4652
2017-08-07T06:46:03.270Z,4668
2017-08-07T06:47:13.427Z,4692
2017-08-07T06:48:23.564Z,4724
2017-08-07T06:49:33.671Z,4736
2017-08-07T06:50:44.134Z,4764
2017-08-07T06:51:54.596Z,4784
2017-08-07T06:53:04.757Z,4804
2017-08-07T06:54:15.258Z,4808
2017-08-07T06:55:25.696Z,4812
2017-08-07T06:56:36.225Z,4824
2017-08-07T06:57:46.733Z,4844
2017-08-07T06:58:57.193Z,4868
2017-08-07T07:00:07.648Z,4884
2017-08-07T07:01:18.364Z,4896
2017-08-07T07:02:28.313Z,4912
2017-08-07T07:03:38.854Z,4932
2017-08-07T07:04:49.357Z,4956
2017-08-07T07:05:59.874Z,4980
2017-08-07T07:07:10.583Z,5000
2017-08-07T07:08:21.257Z,5024
2017-08-07T07:09:31.710Z,5044
2017-08-07T07:10:42.207Z,5080
2017-08-07T07:11:52.677Z,5096
2017-08-07T07:13:03.463Z,5112
2017-08-07T07:14:14.019Z,5128
2017-08-07T07:15:24.161Z,5144
2017-08-07T07:16:34.722Z,5160
2017-08-07T07:17:45.177Z,5188
2017-08-07T07:18:56.115Z,5224
2017-08-07T07:20:06.577Z,5260
2017-08-07T07:21:17.069Z,5296
2017-08-07T07:22:27.547Z,5316
2017-08-07T07:23:38.016Z,5336
2017-08-07T07:24:48.816Z,5364
2017-08-07T07:25:59.317Z,5396
2017-08-07T07:27:09.798Z,5448
2017-08-07T07:28:20.245Z,5480
2017-08-07T07:29:30.769Z,5520
2017-08-07T07:30:41.188Z,5560
2017-08-07T07:31:51.643Z,5604
2017-08-07T07:33:02.091Z,5648
2017-08-07T07:34:12.668Z,5684
2017-08-07T07:35:23.138Z,5720
2017-08-07T07:36:34.003Z,5752
2017-08-07T07:37:44.610Z,5808
2017-08-07T07:38:55.068Z,5852
2017-08-07T07:40:05.832Z,5896
2017-08-07T07:41:16.301Z,5948
2017-08-07T07:42:27.024Z,6004
2017-08-07T07:43:37.498Z,6064
2017-08-07T07:44:47.966Z,6120
2017-08-07T07:45:58.436Z,6172
2017-08-07T07:47:08.945Z,6264
2017-08-07T07:48:19.649Z,6324
2017-08-07T07:49:30.143Z,6388
2017-08-07T07:50:40.632Z,6464
2017-08-07T07:51:51.101Z,6536
2017-08-07T07:53:01.555Z,6608
2017-08-07T07:54:12.283Z,6676
2017-08-07T07:55:22.552Z,6748
2017-08-07T07:56:33.018Z,6828
2017-08-07T07:57:43.506Z,6916
2017-08-07T07:58:53.701Z,6996
2017-08-07T08:00:04.449Z,7088
2017-08-07T08:01:14.937Z,7168
2017-08-07T08:02:25.123Z,7232
2017-08-07T08:03:35.619Z,7280
2017-08-07T08:04:46.254Z,7336
2017-08-07T08:05:56.943Z,7384
2017-08-07T08:07:07.418Z,7444
2017-08-07T08:08:18.562Z,7512
2017-08-07T08:09:29.067Z,7584
2017-08-07T08:10:39.607Z,7672
2017-08-07T08:11:50.138Z,7764
2017-08-07T08:13:00.623Z,7856
2017-08-07T08:14:11.219Z,7944
2017-08-07T08:15:21.680Z,8016
2017-08-07T08:16:31.838Z,8080
2017-08-07T08:17:42.569Z,8132
2017-08-07T08:18:53.109Z,8192
2017-08-07T08:20:04.539Z,8244
2017-08-07T08:21:14.679Z,8280
2017-08-07T08:22:25.160Z,8324
2017-08-07T08:23:35.874Z,8408
2017-08-07T08:24:45.579Z,8496
2017-08-07T08:25:56.084Z,8648
2017-08-07T08:27:06.088Z,9056
2017-08-07T08:28:16.590Z,9600
2017-08-07T08:29:27.297Z,10156
2017-08-07T08:30:37.430Z,10904
2017-08-07T08:31:47.881Z,11740
2017-08-07T08:32:58.376Z,12620
2017-08-07T08:34:08.514Z,13536
2017-08-07T08:35:18.782Z,14336
2017-08-07T08:36:28.995Z,15100
2017-08-07T08:37:39.583Z,15708
2017-08-07T08:38:50.076Z,16544
2017-08-07T08:40:00.611Z,17088
2017-08-07T08:41:11.332Z,33600
2017-08-07T08:42:21.809Z,63680
2017-08-07T08:43:32.312Z,53568
2017-08-07T08:44:42.777Z,59232
2017-08-07T08:45:53.250Z,61344
2017-08-07T08:47:03.980Z,61856
2017-08-07T08:48:14.500Z,60384
2017-08-07T08:49:24.709Z,62080
2017-08-07T08:50:35.180Z,62944
2017-08-07T08:51:45.650Z,68672
2017-08-07T08:52:56.388Z,75680
2017-08-07T08:54:06.881Z,79712
2017-08-07T08:55:17.365Z,95904
2017-08-07T08:56:28.930Z,94560
2017-08-07T08:57:38.994Z,81184
2017-08-07T08:58:49.002Z,71584
2017-08-07T08:59:59.479Z,80608
2017-08-07T09:01:09.655Z,94656
2017-08-07T09:02:20.115Z,78176
2017-08-07T09:03:30.824Z,74784
2017-08-07T09:04:41.555Z,65536
2017-08-07T09:05:52.031Z,56768
2017-08-07T09:07:02.627Z,77952
2017-08-07T09:08:13.220Z,81984
2017-08-07T09:09:23.697Z,74080
2017-08-07T09:10:34.688Z,73664
2017-08-07T09:11:45.407Z,77760
2017-08-07T09:12:55.994Z,77120
2017-08-07T09:14:06.487Z,30784
2017-08-07T09:15:17.083Z,54784
2017-08-07T09:16:27.802Z,79328
2017-08-07T09:17:37.974Z,73056
2017-08-07T09:18:48.447Z,71648
2017-08-07T09:19:59.051Z,87264
2017-08-07T09:21:09.245Z,13576
2017-08-07T09:22:19.971Z,97920
2017-08-07T09:23:30.179Z,88032
2017-08-07T09:24:40.415Z,86592
2017-08-07T09:25:50.900Z,78880
2017-08-07T09:27:01.365Z,66624
2017-08-07T09:28:12.101Z,28224
2017-08-07T09:29:22.675Z,45952
2017-08-07T09:30:32.549Z,15580
2017-08-07T09:31:43.146Z,109184
2017-08-07T09:32:53.338Z,95328
2017-08-07T09:34:04.070Z,92512
2017-08-07T09:35:14.552Z,110464
2017-08-07T09:36:25.037Z,105824
2017-08-07T09:37:35.508Z,13152
2017-08-07T09:38:46.960Z,14952
2017-08-07T09:39:57.718Z,14616
2017-08-07T09:41:08.473Z,16768
2017-08-07T09:42:19.077Z,100512
2017-08-07T09:43:29.619Z,86368
2017-08-07T09:44:40.096Z,89312
2017-08-07T09:45:51.076Z,95072
2017-08-07T09:47:01.605Z,104480
2017-08-07T09:48:12.129Z,123200
2017-08-07T09:49:22.674Z,114816
2017-08-07T09:50:33.178Z,28704
2017-08-07T09:51:44.046Z,15616
2017-08-07T09:52:54.543Z,16960
2017-08-07T09:54:04.684Z,19392
2017-08-07T09:55:15.359Z,28832
2017-08-07T09:56:25.891Z,87360
2017-08-07T09:57:36.667Z,19040
2017-08-07T09:58:47.174Z,16928
2017-08-07T09:59:57.659Z,16128
2017-08-07T10:01:08.194Z,15452
2017-08-07T10:02:18.385Z,15680
2017-08-07T10:03:29.394Z,17632
2017-08-07T10:04:39.879Z,44288
2017-08-07T10:05:50.398Z,108480
2017-08-07T10:07:00.921Z,91520
2017-08-07T10:08:11.627Z,108032
2017-08-07T10:09:22.355Z,99872
2017-08-07T10:10:32.923Z,86528
2017-08-07T10:11:43.397Z,20480
2017-08-07T10:12:53.554Z,18368
2017-08-07T10:14:04.340Z,20320
2017-08-07T10:15:15.070Z,34240
2017-08-07T10:16:25.554Z,29344
2017-08-07T10:17:36.029Z,109664
2017-08-07T10:18:46.610Z,113312
2017-08-07T10:19:56.914Z,120736
2017-08-07T10:21:07.708Z,116064
2017-08-07T10:22:18.196Z,109152
2017-08-07T10:23:28.845Z,105632
2017-08-07T10:25:11.204Z,119872
2017-08-07T10:26:21.954Z,122688
2017-08-07T10:27:32.140Z,120448
2017-08-07T10:28:42.627Z,121568
2017-08-07T10:29:53.138Z,104224
2017-08-07T10:31:03.725Z,89280
2017-08-07T10:32:14.009Z,90304
2017-08-07T10:33:24.490Z,16832
2017-08-07T10:34:34.977Z,24960
2017-08-07T10:35:45.445Z,22464
2017-08-07T10:36:56.013Z,20544
2017-08-07T10:38:06.792Z,17536
2017-08-07T10:39:17.307Z,18400
2017-08-07T10:40:27.770Z,21120
2017-08-07T10:41:38.165Z,84544
2017-08-07T10:42:48.669Z,116512
2017-08-07T10:43:59.095Z,84192
2017-08-07T10:45:09.585Z,88032
2017-08-07T10:46:20.160Z,111520
2017-08-07T10:47:30.341Z,102688
2017-08-07T10:48:40.899Z,107872
2017-08-07T10:49:51.721Z,54080
2017-08-07T10:51:02.219Z,20096
2017-08-07T10:52:12.711Z,19232
2017-08-07T10:53:23.320Z,21376
2017-08-07T10:54:33.790Z,42528
2017-08-07T10:55:44.514Z,32192
2017-08-07T10:56:55.061Z,110720
2017-08-07T10:58:05.785Z,114400
2017-08-07T10:59:15.983Z,113312
2017-08-07T11:00:26.350Z,53216
2017-08-07T11:01:36.853Z,58784
2017-08-07T11:02:47.350Z,125472
2017-08-07T11:03:57.752Z,109408
2017-08-07T11:05:08.270Z,120896
2017-08-07T11:06:18.807Z,122176
2017-08-07T11:07:29.603Z,120320
2017-08-07T11:08:40.421Z,112864
2017-08-07T11:09:50.909Z,100416
2017-08-07T11:11:01.401Z,109696
2017-08-07T11:12:11.942Z,135520
2017-08-07T11:13:22.898Z,125536
2017-08-07T11:14:33.363Z,88096
2017-08-07T11:15:43.907Z,102144
2017-08-07T11:16:54.431Z,109984
2017-08-07T11:18:04.936Z,103840
2017-08-07T11:19:15.719Z,99584
2017-08-07T11:20:26.231Z,29984
2017-08-07T11:21:36.775Z,136928
2017-08-07T11:22:47.305Z,109664
2017-08-07T11:23:58.006Z,94528
2017-08-07T11:25:08.798Z,105824
2017-08-07T11:26:19.385Z,23328
2017-08-07T11:27:30.030Z,24768
2017-08-07T11:28:40.510Z,23072
2017-08-07T11:29:51.058Z,22752
2017-08-07T11:31:01.824Z,25760
2017-08-07T11:32:12.311Z,22208
2017-08-07T11:33:22.485Z,20448
2017-08-07T11:34:33.007Z,19552
2017-08-07T11:35:43.520Z,20448
2017-08-07T11:36:54.324Z,32928
2017-08-07T11:38:04.796Z,25792
2017-08-07T11:39:15.313Z,24832
2017-08-07T11:40:25.902Z,24640
2017-08-07T11:41:36.384Z,25632
2017-08-07T11:42:47.084Z,27744
2017-08-07T11:43:57.564Z,33824
2017-08-07T11:45:08.064Z,36928
2017-08-07T11:46:18.540Z,33760
2017-08-07T11:47:28.559Z,83712
2017-08-07T11:48:39.121Z,33536
2017-08-07T11:49:49.701Z,32704
2017-08-07T11:51:00.207Z,37184
2017-08-07T11:52:10.800Z,33536
2017-08-07T11:53:21.291Z,85888
2017-08-07T11:54:32.097Z,94752
2017-08-07T11:55:42.565Z,116480
2017-08-07T11:56:53.047Z,130112
2017-08-07T11:58:03.686Z,23456
2017-08-07T11:59:14.214Z,24480
2017-08-07T12:00:25.168Z,41344
2017-08-07T12:01:35.684Z,94720
2017-08-07T12:02:46.156Z,32544
2017-08-07T12:03:56.644Z,86272
2017-08-07T12:05:07.255Z,28544
2017-08-07T12:06:18.228Z,21696
2017-08-07T12:07:28.729Z,19680
2017-08-07T12:08:39.232Z,22144
2017-08-07T12:09:49.384Z,93088
2017-08-07T12:10:59.963Z,86816
2017-08-07T12:12:10.703Z,27392
2017-08-07T12:13:21.188Z,109888
2017-08-07T12:14:31.696Z,24736
2017-08-07T12:15:42.173Z,21920
2017-08-07T12:16:52.695Z,23808
2017-08-07T12:18:03.443Z,84384
2017-08-07T12:19:13.954Z,65664
2017-08-07T12:20:24.420Z,30656
2017-08-07T12:21:34.918Z,28992
2017-08-07T12:22:45.405Z,27616
2017-08-07T12:23:56.368Z,83072
2017-08-07T12:25:06.841Z,76640
2017-08-07T12:26:17.334Z,93728
2017-08-07T12:27:27.847Z,103328
2017-08-07T12:28:38.370Z,92608
2017-08-07T12:29:49.091Z,89920
2017-08-07T12:30:59.311Z,119776
2017-08-07T12:32:09.905Z,120448
2017-08-07T12:33:20.398Z,91744
2017-08-07T12:34:30.547Z,37888
2017-08-07T12:35:41.270Z,84288
2017-08-07T12:36:51.819Z,42368
2017-08-07T12:38:02.389Z,92704
2017-08-07T12:39:12.869Z,61408
2017-08-07T12:40:23.371Z,54336
2017-08-07T12:41:34.140Z,26912
2017-08-07T12:42:44.599Z,22592
2017-08-07T12:43:55.172Z,102560
2017-08-07T12:45:05.722Z,91680
2017-08-07T12:46:16.186Z,95360
2017-08-07T12:47:26.908Z,77568
2017-08-07T12:48:37.443Z,107680
2017-08-07T12:49:47.986Z,83072
2017-08-07T12:50:58.517Z,69920
2017-08-07T12:52:09.036Z,93248
2017-08-07T12:53:19.775Z,106816
2017-08-07T12:54:30.340Z,95488
2017-08-07T12:55:40.848Z,57632
2017-08-07T12:56:51.006Z,20960
2017-08-07T12:58:01.527Z,22144
2017-08-07T12:59:12.270Z,95744
2017-08-07T13:00:22.785Z,27200
2017-08-07T13:01:33.403Z,92288
2017-08-07T13:02:43.888Z,87808
2017-08-07T13:03:53.935Z,89504
2017-08-07T13:05:04.893Z,93504
2017-08-07T13:06:15.060Z,99456
2017-08-07T13:07:25.523Z,22048
2017-08-07T13:08:36.038Z,18560
2017-08-07T13:09:46.538Z,15488
2017-08-07T13:10:57.391Z,14896
2017-08-07T13:12:07.605Z,15776
2017-08-07T13:13:18.080Z,44256
2017-08-07T13:14:28.651Z,22208
2017-08-07T13:15:39.328Z,23360
2017-08-07T13:16:50.049Z,86720
2017-08-07T13:18:00.241Z,95744
2017-08-07T13:19:10.721Z,82112
2017-08-07T13:20:20.917Z,22272
2017-08-07T13:21:31.433Z,20128
2017-08-07T13:22:42.175Z,24064
2017-08-07T13:23:52.647Z,23232
2017-08-07T13:25:03.143Z,89024
2017-08-07T13:26:13.626Z,92288
2017-08-07T13:27:23.791Z,94784
2017-08-07T13:28:34.307Z,87808
2017-08-07T13:29:44.287Z,17792
2017-08-07T13:30:54.766Z,15968
2017-08-07T13:32:05.021Z,18272
2017-08-07T13:33:15.589Z,18464
2017-08-07T13:34:26.327Z,19264
2017-08-07T13:35:36.796Z,29952
2017-08-07T13:36:46.831Z,18624
2017-08-07T13:37:57.336Z,16960
2017-08-07T13:39:07.819Z,16256
2017-08-07T13:40:18.769Z,15376
2017-08-07T13:41:29.240Z,16672
2017-08-07T13:42:39.288Z,55136
2017-08-07T13:43:49.777Z,74496
2017-08-07T13:45:00.244Z,87136
2017-08-07T13:46:10.965Z,87584
2017-08-07T13:47:21.731Z,78816
2017-08-07T13:48:32.237Z,70016
2017-08-07T13:49:42.942Z,68768
2017-08-07T13:50:53.461Z,70144
2017-08-07T13:52:04.267Z,30496
2017-08-07T13:53:14.761Z,97312
2017-08-07T13:54:26.193Z,83392
2017-08-07T13:55:36.589Z,66176
2017-08-07T13:56:46.444Z,80192
2017-08-07T13:57:56.863Z,88256
2017-08-07T13:59:07.340Z,67488
2017-08-07T14:00:17.829Z,53376
2017-08-07T14:01:28.308Z,75584
2017-08-07T14:02:38.844Z,96864
2017-08-07T14:03:49.601Z,77344
2017-08-07T14:05:00.101Z,57952
2017-08-07T14:06:10.625Z,65376
2017-08-07T14:07:21.110Z,88608
2017-08-07T14:08:31.719Z,94272
2017-08-07T14:09:42.439Z,70912
2017-08-07T14:10:53.068Z,20800
2017-08-07T14:12:03.243Z,48928
2017-08-07T14:13:13.801Z,72832
2017-08-07T14:14:24.296Z,76896
2017-08-07T14:15:35.036Z,58592
2017-08-07T14:16:45.531Z,49536
2017-08-07T14:17:56.139Z,56992
2017-08-07T14:19:06.389Z,69728
2017-08-07T14:20:16.883Z,71200
2017-08-07T14:21:27.662Z,59744
2017-08-07T14:22:38.153Z,61248
2017-08-07T14:23:48.398Z,32288
2017-08-07T14:24:58.919Z,14096
2017-08-07T14:26:09.434Z,26752
2017-08-07T14:27:20.167Z,67520
2017-08-07T14:28:30.684Z,52832
2017-08-07T14:29:41.191Z,45088
2017-08-07T14:30:51.388Z,52928
2017-08-07T14:32:01.919Z,59040
2017-08-07T14:33:12.664Z,64832
2017-08-07T14:34:23.191Z,65536
2017-08-07T14:35:33.859Z,54112
2017-08-07T14:36:44.322Z,60480
2017-08-07T14:37:54.101Z,69792
2017-08-07T14:39:04.836Z,62432
2017-08-07T14:40:15.383Z,46624
2017-08-07T14:41:25.918Z,25696
2017-08-07T14:42:36.413Z,45536
2017-08-07T14:43:46.618Z,23360
2017-08-07T14:44:57.393Z,15548
2017-08-07T14:46:08.103Z,16832
2017-08-07T14:47:18.724Z,17568
2017-08-07T14:48:29.225Z,16416
2017-08-07T14:49:39.705Z,15116
2017-08-07T14:50:50.464Z,14780
2017-08-07T14:52:00.940Z,14756
2017-08-07T14:53:11.670Z,16084
2017-08-07T14:54:22.315Z,17024
2017-08-07T14:55:32.795Z,59168
2017-08-07T14:56:43.526Z,19936
2017-08-07T14:57:54.036Z,56896
2017-08-07T14:59:04.553Z,61280
2017-08-07T15:00:14.389Z,57440
2017-08-07T15:01:24.661Z,21696
2017-08-07T15:02:35.113Z,46272
2017-08-07T15:03:45.840Z,51040
2017-08-07T15:04:56.065Z,65984
2017-08-07T15:06:06.228Z,55264
2017-08-07T15:07:16.716Z,53312
2017-08-07T15:08:27.233Z,52768
2017-08-07T15:09:37.732Z,33952
2017-08-07T15:10:48.311Z,13764
2017-08-07T15:11:58.790Z,50688
2017-08-07T15:13:09.285Z,46816
2017-08-07T15:14:20.021Z,53152
2017-08-07T15:15:30.208Z,57120
2017-08-07T15:16:40.688Z,48512
2017-08-07T15:17:51.315Z,41664
2017-08-07T15:19:01.838Z,53504
2017-08-07T15:20:12.613Z,65472
2017-08-07T15:21:23.138Z,43296
2017-08-07T15:22:33.615Z,32224
2017-08-07T15:23:44.114Z,49376
2017-08-07T15:24:54.575Z,47264
2017-08-07T15:26:05.319Z,37600
2017-08-07T15:27:15.830Z,36192
2017-08-07T15:28:26.315Z,47712
2017-08-07T15:29:37.017Z,27392
2017-08-07T15:30:47.579Z,29696
2017-08-07T15:31:58.320Z,16832
2017-08-07T15:33:08.491Z,15008
2017-08-07T15:34:18.983Z,11004
2017-08-07T15:35:29.619Z,10976
2017-08-07T15:36:39.810Z,13392
2017-08-07T15:37:50.360Z,12712
2017-08-07T15:39:00.821Z,12136
2017-08-07T15:40:10.950Z,11644
2017-08-07T15:41:21.430Z,11032
2017-08-07T15:42:31.964Z,10840
2017-08-07T15:43:42.728Z,10612
2017-08-07T15:44:53.324Z,10512